Decoded Metar for CYQV (YORKTON in SK, CANADA) (IATA:YQV) | Meteo·Mobile Aviation Weather
aviador You're here:

CYQV Decoded Metar

YORKTON in SK, CANADA
Report Time2019-02-20 19:00:00
UTC Time2019-02-20 19:24:29
Flight Rules vfr VFR
Wind130° at 08 kt
W.Decomp.*RWY 12: 8.0 kt HW -0 kt LCW
RWY 03: 8.0 kt RCW
W.Rank130° ranks 13
Current wind is below 130° avg. (8.3)
Visibility9999 m
Phenomena:N/A
Clouds:N/A
Expected CloudBase > 1,600 ft AGL from Temp-Dew spread
CeilingNone
Temp-17°C (ISA -29)
Dew Point-21°C (71% RH)
AAT-23.5°C
QNH1006 hPa
Density Alt-1,739 ft
Elevation1,634 ft
Report Wrong Elevation
Raw Report
CYQV 201900Z AUTO 13008KT 9SM CLR M17/M21 A2972 RMK SLP115=

Extra information for CYQV:More info

Metar Taf Metar & Taf Last 4 Metars F.Rules Stats Wind Profile Meteogram Temp Stats Airport Information Weather charts Add Link Nearby VenuesMetar ALERT Operation Metar Decoded Social comments